Time;durP1;ratioP1;P1;durP2;ratioP2;P2;SDS_P1;SDS_P2;PMS_P1;PMS_P2;Temp;Humidity;BMP_temperature;BMP_pressure;BME280_temperature;BME280_humidity;BME280_pressure;Samples;Min_cycle;Max_cycle;Signal;HPM_P1;HPM_P2
2022/01/06 00:01:29;;;;;;;6.83;4.80;;;2.60;99.90;;;3.36;88.39;97637.25;5202903;28;20223;-66
2022/01/06 00:04:02;;;;;;;7.00;5.50;;;2.50;99.90;;;3.36;88.30;97639.78;5204044;28;20217;-65
2022/01/06 00:06:39;;;;;;;7.67;5.10;;;2.50;99.90;;;3.35;88.45;97637.16;5205904;28;20230;-65
2022/01/06 00:09:17;;;;;;;7.50;5.13;;;2.50;99.90;;;3.38;88.52;97647.50;5204283;28;20190;-64
2022/01/06 00:11:50;;;;;;;8.27;4.80;;;2.60;99.90;;;3.34;89.21;97642.94;5203807;28;20225;-64
2022/01/06 00:14:37;;;;;;;8.00;4.90;;;2.60;99.90;;;3.50;87.64;97640.91;5205541;28;20866;-65
2022/01/06 00:17:23;;;;;;;9.23;4.67;;;2.50;99.90;;;3.47;87.61;97642.31;5203929;28;20207;-65
2022/01/06 00:25:39;;;;;;;6.07;4.80;;;2.60;99.90;;;3.48;87.79;97647.47;5202510;28;20215;-64
2022/01/06 00:28:13;;;;;;;7.47;5.17;;;2.60;99.90;;;3.47;88.11;97648.22;5203275;28;20661;-65
2022/01/06 00:30:47;;;;;;;7.57;5.07;;;2.60;99.90;;;3.57;87.06;97638.09;5204381;28;20774;-65
2022/01/06 00:33:21;;;;;;;10.00;5.30;;;2.60;99.90;;;3.53;87.29;97652.91;5203013;28;20603;-64
2022/01/06 00:35:54;;;;;;;6.90;5.07;;;2.70;99.90;;;3.45;87.94;97654.81;5204435;28;20243;-63
2022/01/06 00:38:27;;;;;;;7.20;5.20;;;2.60;99.90;;;3.45;87.82;97656.44;5205457;28;20285;-64
2022/01/06 00:41:02;;;;;;;6.17;5.07;;;2.60;99.90;;;3.51;87.77;97652.75;5203788;28;20232;-65
2022/01/06 00:43:35;;;;;;;7.93;4.77;;;2.60;99.90;;;3.54;87.65;97655.53;5204908;28;20209;-64
2022/01/06 00:46:08;;;;;;;7.73;4.80;;;2.60;99.90;;;3.55;87.91;97652.25;5203035;28;20208;-65
2022/01/06 00:48:42;;;;;;;6.03;5.20;;;2.60;99.90;;;3.47;88.52;97653.28;5203216;28;20205;-65
2022/01/06 00:51:15;;;;;;;8.33;6.07;;;2.60;99.90;;;3.49;89.06;97656.84;5203792;28;20205;-65
2022/01/06 00:53:48;;;;;;;5.53;4.97;;;2.60;99.90;;;3.46;89.73;97656.56;5203475;28;20272;-65
2022/01/06 00:56:22;;;;;;;8.03;5.33;;;2.60;99.90;;;3.41;89.92;97652.81;5204642;28;20668;-64
2022/01/06 00:58:55;;;;;;;8.23;5.30;;;2.60;99.90;;;3.45;90.28;97654.81;5203827;28;20211;-64
2022/01/06 01:01:28;;;;;;;6.03;4.93;;;2.60;99.90;;;3.55;89.26;97664.03;5201775;28;20252;-65
2022/01/06 01:04:01;;;;;;;8.97;5.73;;;2.60;99.90;;;3.45;89.95;97658.97;5203502;28;20700;-64
2022/01/06 01:06:34;;;;;;;7.73;5.67;;;2.50;99.90;;;3.40;90.43;97663.63;5203376;28;20210;-65
2022/01/06 01:09:07;;;;;;;11.00;5.87;;;2.60;99.90;;;3.38;90.62;97658.47;5202686;28;20215;-63
2022/01/06 01:11:42;;;;;;;10.20;5.83;;;2.50;99.90;;;3.32;91.45;97662.13;5202308;28;20702;-65
2022/01/06 01:14:25;;;;;;;7.20;5.50;;;2.50;99.90;;;3.36;90.99;97671.75;5202578;28;20237;-65
2022/01/06 01:17:00;;;;;;;10.57;5.90;;;2.50;99.90;;;3.30;91.69;97668.72;5201322;28;20217;-64
2022/01/06 01:19:33;;;;;;;7.27;5.47;;;2.50;99.90;;;3.30;91.90;97678.81;5201526;28;20281;-65
2022/01/06 01:22:08;;;;;;;7.97;5.73;;;2.50;99.90;;;3.32;91.59;97679.81;5201618;28;20222;-64
2022/01/06 01:24:41;;;;;;;9.47;6.27;;;2.50;99.90;;;3.33;92.26;97677.44;5204484;28;20278;-65
2022/01/06 01:27:20;;;;;;;7.13;6.30;;;2.50;99.90;;;3.33;91.75;97681.59;5202764;28;20200;-65
2022/01/06 01:29:58;;;;;;;6.63;5.80;;;2.50;99.90;;;3.34;91.39;97686.75;5202855;28;20204;-65
2022/01/06 01:32:35;;;;;;;8.83;6.00;;;2.50;99.90;;;3.29;92.37;97687.13;5203299;28;20219;-64
2022/01/06 01:35:10;;;;;;;8.73;5.73;;;2.50;99.90;;;3.30;92.14;97696.50;5201629;28;20209;-64
2022/01/06 01:37:43;;;;;;;8.50;5.90;;;2.40;99.90;;;3.29;92.78;97692.19;5201937;28;20213;-65
2022/01/06 01:40:16;;;;;;;7.90;5.77;;;2.40;99.90;;;3.26;92.94;97699.53;5205531;28;20213;-61
2022/01/06 01:42:51;;;;;;;8.73;6.93;;;2.40;99.90;;;3.15;93.38;97691.09;5206328;28;20226;-64
2022/01/06 01:45:28;;;;;;;8.70;5.77;;;2.40;99.90;;;3.27;93.01;97694.59;5205172;28;20192;-63
2022/01/06 01:48:06;;;;;;;7.23;5.97;;;2.40;99.90;;;3.07;92.93;97700.53;5207698;28;20206;-64
2022/01/06 01:50:39;;;;;;;8.77;6.57;;;2.30;99.90;;;3.02;93.77;97694.22;5205740;28;20573;-64
2022/01/06 01:53:12;;;;;;;9.63;6.57;;;2.20;99.90;;;2.90;95.06;97709.22;5206223;28;20212;-69
2022/01/06 01:55:46;;;;;;;8.37;6.73;;;2.20;99.90;;;2.81;95.02;97710.09;5208006;28;20589;-65
2022/01/06 01:58:22;;;;;;;9.67;6.93;;;2.10;99.90;;;2.82;95.06;97701.78;5206658;28;20585;-64
2022/01/06 02:00:55;;;;;;;8.50;6.70;;;2.10;99.90;;;2.79;96.16;97706.56;5201747;28;20202;-63
2022/01/06 02:03:28;;;;;;;8.67;5.83;;;2.00;99.90;;;2.81;95.70;97711.00;5206206;28;20318;-64
2022/01/06 02:06:01;;;;;;;10.00;6.60;;;2.00;99.90;;;2.80;96.89;97711.72;5206358;28;20208;-63
2022/01/06 02:08:34;;;;;;;8.07;6.70;;;2.10;99.90;;;2.85;97.52;97717.16;5202992;28;20212;-64
2022/01/06 02:11:08;;;;;;;6.90;6.20;;;2.10;99.90;;;2.84;97.44;97717.94;5206371;28;20205;-61
2022/01/06 02:13:47;;;;;;;8.53;6.67;;;2.10;99.90;;;2.70;98.06;97722.69;5205190;28;20217;-64
2022/01/06 02:16:27;;;;;;;8.30;7.00;;;2.10;99.90;;;2.67;97.74;97717.38;5203762;28;20198;-64
2022/01/06 02:19:01;;;;;;;9.80;6.60;;;2.10;99.90;;;2.66;99.23;97725.72;5205645;28;20626;-63
2022/01/06 02:21:41;;;;;;;8.43;6.73;;;2.20;99.90;;;2.77;99.43;97724.09;5207124;28;20558;-63
2022/01/06 02:24:14;;;;;;;10.30;6.47;;;2.10;99.90;;;2.84;99.89;97725.50;5204453;28;20710;-63
2022/01/06 02:26:47;;;;;;;8.43;6.40;;;2.20;99.90;;;2.87;99.67;97731.69;5205951;28;20198;-63
2022/01/06 02:29:20;;;;;;;7.93;6.63;;;2.20;99.90;;;2.83;99.29;97737.25;5204361;28;20230;-63
2022/01/06 02:31:53;;;;;;;9.70;7.07;;;2.20;99.90;;;2.80;100.00;97738.59;5201973;28;20229;-63
2022/01/06 02:34:26;;;;;;;8.50;7.40;;;2.20;99.90;;;2.83;100.00;97748.94;5202382;28;20301;-64
2022/01/06 02:37:02;;;;;;;13.47;11.23;;;2.20;99.90;;;2.73;100.00;97747.31;5205496;28;20197;-64
2022/01/06 02:39:35;;;;;;;14.10;9.13;;;2.20;99.90;;;2.69;100.00;97741.13;5204355;28;20198;-61
2022/01/06 02:42:10;;;;;;;8.50;7.20;;;2.10;99.90;;;2.70;100.00;97742.88;5205709;28;20227;-64
2022/01/06 02:44:43;;;;;;;10.23;7.57;;;2.10;99.90;;;2.54;100.00;97754.94;5206760;28;20210;-63
2022/01/06 02:47:16;;;;;;;7.90;7.10;;;2.10;99.90;;;2.52;100.00;97750.50;5207306;28;20527;-62
2022/01/06 02:49:49;;;;;;;7.87;6.93;;;2.00;99.90;;;2.56;100.00;97750.03;5207589;28;20208;-64
2022/01/06 02:52:23;;;;;;;8.30;7.43;;;2.10;99.90;;;2.57;100.00;97747.63;5205523;28;20221;-64
2022/01/06 02:54:56;;;;;;;7.77;6.83;;;2.00;99.90;;;2.57;100.00;97746.75;5206681;28;20211;-64
2022/01/06 02:57:29;;;;;;;8.57;7.60;;;2.10;99.90;;;2.66;100.00;97740.84;5206015;28;20202;-64
2022/01/06 03:00:03;;;;;;;7.67;6.97;;;2.10;99.90;;;2.86;100.00;97744.16;5205022;28;20202;-64
2022/01/06 03:02:36;;;;;;;8.37;7.00;;;2.20;99.90;;;2.87;100.00;97740.91;5206016;28;20330;-64
2022/01/06 03:05:10;;;;;;;8.43;7.23;;;2.10;99.90;;;2.92;100.00;97745.59;5206792;28;20638;-64
2022/01/06 03:07:45;;;;;;;7.67;7.07;;;2.10;99.90;;;2.90;100.00;97753.78;5203031;28;20686;-62
2022/01/06 03:10:18;;;;;;;7.10;6.27;;;2.20;99.90;;;2.89;100.00;97739.38;5205579;28;20202;-63
2022/01/06 03:12:51;;;;;;;8.77;6.67;;;2.20;99.90;;;2.96;100.00;97736.63;5206408;28;20609;-62
2022/01/06 03:15:25;;;;;;;8.10;6.27;;;2.20;99.90;;;3.01;100.00;97745.47;5205739;28;20202;-63
2022/01/06 03:17:59;;;;;;;10.00;6.37;;;2.20;99.90;;;2.94;100.00;97754.16;5201457;28;20590;-62
2022/01/06 03:20:34;;;;;;;8.53;6.90;;;2.30;99.90;;;2.96;100.00;97751.78;5205310;28;20198;-63
2022/01/06 03:23:08;;;;;;;8.20;6.27;;;2.30;99.90;;;2.99;100.00;97756.19;5205484;28;20230;-64
2022/01/06 03:25:41;;;;;;;6.47;5.90;;;2.30;99.90;;;3.07;100.00;97755.19;5206021;28;20196;-63
2022/01/06 03:28:14;;;;;;;9.17;6.40;;;2.20;99.90;;;3.06;100.00;97754.31;5204265;28;20652;-63
2022/01/06 03:30:47;;;;;;;8.20;6.40;;;2.30;99.90;;;3.04;100.00;97755.81;5206575;28;20200;-63
2022/01/06 03:33:20;;;;;;;9.47;6.47;;;2.30;99.90;;;3.08;100.00;97754.44;5204932;28;20216;-63
2022/01/06 03:35:53;;;;;;;10.63;6.57;;;2.30;99.90;;;3.09;100.00;97761.25;5204824;28;20204;-63
2022/01/06 03:38:28;;;;;;;8.43;7.00;;;2.30;99.90;;;3.04;100.00;97765.03;5205239;28;20331;-63
2022/01/06 03:41:01;;;;;;;7.47;6.77;;;2.30;99.90;;;2.97;100.00;97768.66;5205019;28;20208;-63
2022/01/06 03:43:34;;;;;;;8.27;6.43;;;2.30;99.90;;;2.93;100.00;97776.75;5205807;28;20234;-63
2022/01/06 03:46:07;;;;;;;10.90;6.87;;;2.30;99.90;;;2.90;100.00;97773.97;5204551;28;20242;-64
2022/01/06 03:48:40;;;;;;;7.23;6.53;;;2.30;99.90;;;2.87;100.00;97781.28;5203286;28;20202;-64
2022/01/06 03:51:13;;;;;;;8.70;6.83;;;2.30;99.90;;;2.84;100.00;97775.97;5203329;28;20204;-67
2022/01/06 03:53:48;;;;;;;8.23;6.73;;;2.30;99.90;;;2.80;100.00;97789.94;5203110;28;20205;-64
2022/01/06 03:56:21;;;;;;;9.30;7.00;;;2.20;99.90;;;2.64;100.00;97787.78;5200740;28;20282;-64
2022/01/06 03:58:54;;;;;;;12.30;7.17;;;2.10;99.90;;;2.62;100.00;97784.22;5202574;28;20205;-64
2022/01/06 04:01:27;;;;;;;8.03;6.97;;;2.00;99.90;;;2.41;100.00;97788.31;5203614;28;20812;-64
2022/01/06 04:04:01;;;;;;;8.90;6.97;;;1.90;99.90;;;2.37;100.00;97790.41;5198828;28;20213;-62
2022/01/06 04:06:34;;;;;;;10.50;7.03;;;1.90;99.90;;;2.27;100.00;97803.88;5201698;28;20225;-63
2022/01/06 04:09:09;;;;;;;8.80;7.20;;;1.80;99.90;;;2.28;100.00;97795.53;5203731;28;20209;-63
2022/01/06 04:11:42;;;;;;;8.67;7.20;;;1.80;99.90;;;2.25;100.00;97796.16;5202623;28;20218;-62
2022/01/06 04:14:15;;;;;;;8.20;7.40;;;1.70;99.90;;;2.25;100.00;97803.72;5203895;28;20284;-63
2022/01/06 04:16:48;;;;;;;9.90;7.37;;;1.80;99.90;;;2.34;100.00;97800.25;5203177;28;20198;-63
2022/01/06 04:19:21;;;;;;;10.73;6.70;;;1.90;99.90;;;2.34;100.00;97796.06;5204720;28;20194;-62
2022/01/06 04:21:55;;;;;;;7.60;6.90;;;1.90;99.90;;;2.41;100.00;97812.66;5204613;28;20696;-62
2022/01/06 04:24:29;;;;;;;10.57;7.10;;;1.90;99.90;;;2.47;100.00;97813.19;5203270;28;20226;-63
2022/01/06 04:27:03;;;;;;;7.53;6.83;;;2.00;99.90;;;2.53;100.00;97817.88;5200773;28;20562;-62
2022/01/06 04:29:36;;;;;;;12.23;7.70;;;2.00;99.90;;;2.59;100.00;97828.50;5202929;28;20206;-62
2022/01/06 04:32:09;;;;;;;12.40;8.17;;;2.10;99.90;;;2.65;100.00;97826.50;5204859;28;20225;-65
2022/01/06 04:34:42;;;;;;;9.80;7.17;;;2.10;99.90;;;2.66;100.00;97831.69;5203098;28;20196;-63
2022/01/06 04:37:15;;;;;;;8.47;7.53;;;2.10;99.90;;;2.73;100.00;97827.16;5204798;28;20289;-62
2022/01/06 04:39:49;;;;;;;10.87;6.93;;;2.20;99.90;;;2.74;100.00;97823.88;5202360;28;20527;-63
2022/01/06 04:42:22;;;;;;;9.73;7.77;;;2.20;99.90;;;2.79;100.00;97827.69;5201106;28;20217;-64
2022/01/06 04:44:55;;;;;;;10.50;7.77;;;2.20;99.90;;;2.86;100.00;97817.34;5203769;28;20226;-64
2022/01/06 04:47:28;;;;;;;9.13;7.23;;;2.20;99.90;;;2.92;100.00;97826.34;5202221;28;20202;-64
2022/01/06 04:50:01;;;;;;;9.13;7.13;;;2.20;99.90;;;2.86;100.00;97825.84;5203386;28;20200;-64
2022/01/06 04:52:34;;;;;;;10.57;7.60;;;2.20;99.90;;;2.83;100.00;97837.28;5202158;28;20594;-62
2022/01/06 04:55:10;;;;;;;13.27;7.77;;;2.20;99.90;;;2.87;100.00;97834.28;5205742;28;20200;-64
2022/01/06 04:57:43;;;;;;;10.47;7.87;;;2.30;99.90;;;2.89;100.00;97835.28;5203027;28;20561;-63
2022/01/06 05:00:16;;;;;;;11.13;7.30;;;2.30;99.90;;;2.92;100.00;97840.63;5203923;28;20226;-64
2022/01/06 05:02:49;;;;;;;12.03;7.20;;;2.30;99.90;;;2.91;100.00;97843.88;5202295;28;20252;-62
2022/01/06 05:05:22;;;;;;;9.50;7.73;;;2.30;99.90;;;2.88;100.00;97853.72;5200194;28;20252;-62
2022/01/06 05:07:55;;;;;;;13.70;7.23;;;2.30;99.90;;;2.90;100.00;97854.75;5201932;28;20205;-63
2022/01/06 05:10:30;;;;;;;8.20;7.27;;;2.30;99.90;;;2.89;100.00;97861.44;5203141;28;20215;-62
2022/01/06 05:13:03;;;;;;;8.20;6.80;;;2.30;99.90;;;2.91;100.00;97853.97;5202059;28;20237;-63
2022/01/06 05:15:36;;;;;;;12.17;8.13;;;2.30;99.90;;;2.92;100.00;97861.69;5200676;28;20226;-62
2022/01/06 05:18:09;;;;;;;7.50;6.80;;;2.30;99.90;;;2.92;100.00;97851.59;5203011;28;20206;-65
2022/01/06 05:20:43;;;;;;;11.20;7.33;;;2.30;99.90;;;2.92;100.00;97851.59;5203493;28;20722;-63
2022/01/06 05:23:17;;;;;;;12.63;8.10;;;2.30;99.90;;;2.97;100.00;97861.19;5202749;28;20692;-65
2022/01/06 05:25:51;;;;;;;9.00;7.30;;;2.40;99.90;;;2.93;100.00;97865.97;5203509;28;20213;-63
2022/01/06 05:28:24;;;;;;;8.73;7.37;;;2.40;99.90;;;2.97;100.00;97861.19;5204641;28;20571;-63
2022/01/06 05:30:57;;;;;;;10.33;8.00;;;2.40;99.90;;;2.94;100.00;97869.38;5201164;28;20208;-64
2022/01/06 05:33:31;;;;;;;10.03;7.73;;;2.30;99.90;;;2.94;100.00;97872.78;5203994;28;20618;-64
2022/01/06 05:36:05;;;;;;;10.40;7.70;;;2.40;99.90;;;2.96;100.00;97872.94;5203799;28;20198;-63
2022/01/06 05:38:38;;;;;;;8.60;7.67;;;2.40;99.90;;;2.94;100.00;97874.44;5202727;28;20210;-63
2022/01/06 05:41:12;;;;;;;8.70;7.37;;;2.40;99.90;;;3.00;100.00;97877.47;5202352;28;20274;-63
2022/01/06 05:43:45;;;;;;;10.43;8.27;;;2.40;99.90;;;3.02;100.00;97865.88;5199462;28;20224;-63
2022/01/06 05:46:19;;;;;;;8.43;7.03;;;2.40;99.90;;;3.04;100.00;97866.03;5197022;28;20204;-63
2022/01/06 05:48:52;;;;;;;8.33;7.40;;;2.40;99.90;;;3.02;100.00;97875.97;5201315;28;20204;-64
2022/01/06 05:51:25;;;;;;;8.90;7.50;;;2.40;99.90;;;2.91;100.00;97879.22;5200328;28;20222;-63
2022/01/06 05:53:58;;;;;;;7.73;6.93;;;2.40;99.90;;;2.98;100.00;97879.00;5198439;28;20657;-64
2022/01/06 05:56:33;;;;;;;8.43;7.43;;;2.40;99.90;;;3.05;100.00;97875.38;5201635;28;20245;-63
2022/01/06 05:59:06;;;;;;;9.97;7.23;;;2.40;99.90;;;3.07;100.00;97882.31;5198552;28;20562;-62
2022/01/06 06:01:39;;;;;;;8.53;7.60;;;2.40;99.90;;;3.11;100.00;97879.28;5200885;28;20230;-65
2022/01/06 06:04:12;;;;;;;9.20;7.57;;;2.50;99.90;;;3.11;100.00;97889.38;5199970;28;20217;-62
2022/01/06 06:06:45;;;;;;;8.87;7.80;;;2.50;99.90;;;3.09;100.00;97879.91;5198161;28;20215;-64
2022/01/06 06:09:18;;;;;;;10.27;7.53;;;2.50;99.90;;;3.05;100.00;97893.91;5196308;28;20644;-62
2022/01/06 06:11:52;;;;;;;8.70;7.90;;;2.40;99.90;;;3.06;100.00;97895.72;5200577;28;20227;-62
2022/01/06 06:14:26;;;;;;;11.03;7.47;;;2.40;99.90;;;3.07;100.00;97897.47;5201473;28;20201;-65
2022/01/06 06:16:59;;;;;;;7.10;6.20;;;2.40;99.90;;;3.09;100.00;97890.00;5202611;28;20216;-63
2022/01/06 06:19:32;;;;;;;7.47;6.83;;;2.50;99.90;;;3.12;100.00;97896.22;5202551;28;20200;-64
2022/01/06 06:22:05;;;;;;;8.40;7.37;;;2.50;99.90;;;3.21;100.00;97890.19;5201456;28;20219;-65
2022/01/06 06:24:38;;;;;;;8.27;7.47;;;2.50;99.90;;;3.23;100.00;97891.19;5199757;28;20224;-62
2022/01/06 06:27:13;;;;;;;10.20;8.30;;;2.50;99.90;;;3.26;100.00;97896.50;5203462;28;20206;-64
2022/01/06 06:29:46;;;;;;;11.23;9.80;;;2.50;99.90;;;3.22;100.00;97892.84;5203321;28;20197;-62
2022/01/06 06:32:19;;;;;;;11.43;9.90;;;2.60;99.90;;;3.22;100.00;97897.91;5204830;28;20586;-64
2022/01/06 06:34:52;;;;;;;10.30;9.27;;;2.60;99.90;;;3.24;100.00;97895.50;5202097;28;20204;-65
2022/01/06 06:37:26;;;;;;;8.87;8.00;;;2.60;99.90;;;3.13;100.00;97908.09;5203159;28;20200;-63
2022/01/06 06:39:59;;;;;;;8.63;7.47;;;2.50;99.90;;;3.16;100.00;97907.47;5202999;28;20207;-63
2022/01/06 06:42:34;;;;;;;9.93;7.40;;;2.50;99.90;;;3.13;100.00;97905.56;5202607;28;20311;-64
2022/01/06 06:45:09;;;;;;;9.67;7.93;;;2.50;99.90;;;3.13;100.00;97918.19;5205709;28;20219;-64
2022/01/06 06:47:42;;;;;;;9.73;7.40;;;2.50;99.90;;;3.17;100.00;97917.69;5207979;28;20208;-64
2022/01/06 06:50:16;;;;;;;8.70;7.87;;;2.50;99.90;;;3.21;100.00;97928.09;5203132;28;20675;-64
2022/01/06 06:52:50;;;;;;;7.90;7.10;;;2.60;99.90;;;3.19;100.00;97927.06;5204061;28;20221;-64
2022/01/06 06:55:23;;;;;;;10.60;8.33;;;2.60;99.90;;;3.13;100.00;97945.97;5201284;28;20668;-65
2022/01/06 06:57:57;;;;;;;10.10;8.53;;;2.60;99.90;;;3.03;100.00;97966.09;5200049;28;20200;-63
2022/01/06 07:00:30;;;;;;;9.37;7.60;;;2.50;99.90;;;2.78;100.00;97968.13;5202259;28;20626;-64
2022/01/06 07:03:04;;;;;;;7.90;7.10;;;2.30;99.90;;;2.45;100.00;97966.00;5203605;28;20229;-64
2022/01/06 07:05:37;;;;;;;7.60;6.90;;;2.00;99.90;;;2.30;100.00;97977.25;5203566;28;20229;-64
2022/01/06 07:08:10;;;;;;;7.10;6.40;;;1.90;99.90;;;2.22;100.00;97971.50;5193017;28;20205;-65
2022/01/06 07:10:43;;;;;;;7.07;6.47;;;1.70;99.90;;;2.17;100.00;97978.63;5201532;28;20209;-65
2022/01/06 07:13:18;;;;;;;7.33;6.60;;;1.70;99.90;;;2.15;100.00;97979.28;5205779;28;20231;-66
2022/01/06 07:15:51;;;;;;;9.03;7.43;;;1.70;99.90;;;2.10;100.00;97981.38;5201971;28;20637;-65
2022/01/06 07:18:24;;;;;;;8.67;7.17;;;1.70;99.90;;;2.08;100.00;97977.81;5202594;28;20197;-64
2022/01/06 07:20:58;;;;;;;8.83;7.90;;;1.70;99.90;;;2.12;100.00;97978.97;5203654;28;20660;-65
2022/01/06 07:23:31;;;;;;;8.63;7.80;;;1.70;99.90;;;2.16;100.00;97978.50;5201258;28;20208;-65
2022/01/06 07:26:04;;;;;;;9.20;7.60;;;1.70;99.90;;;2.15;100.00;97989.34;5202813;28;20707;-64
2022/01/06 07:28:38;;;;;;;9.87;7.50;;;1.70;99.90;;;2.11;100.00;97995.72;5197622;28;20569;-65
2022/01/06 07:31:11;;;;;;;8.63;7.43;;;1.70;99.90;;;2.09;100.00;97989.69;5201033;28;20203;-65
2022/01/06 07:33:44;;;;;;;9.73;8.23;;;1.60;99.90;;;1.98;100.00;98005.47;5200863;28;20669;-63
2022/01/06 07:36:18;;;;;;;10.73;8.23;;;1.60;99.90;;;1.98;100.00;97995.38;5203697;28;20210;-65
2022/01/06 07:38:51;;;;;;;9.00;7.63;;;1.60;99.90;;;2.07;100.00;97993.69;5204314;28;20201;-64
2022/01/06 07:41:24;;;;;;;10.43;7.33;;;1.60;99.90;;;2.03;100.00;97999.19;5201385;28;20317;-64
2022/01/06 07:43:58;;;;;;;8.67;7.43;;;1.60;99.90;;;2.02;100.00;98003.34;5200772;28;20561;-63
2022/01/06 07:46:31;;;;;;;8.70;7.27;;;1.60;99.90;;;1.98;100.00;98003.81;5202294;28;20229;-66
2022/01/06 07:49:05;;;;;;;8.37;7.20;;;1.50;99.90;;;2.05;100.00;98007.78;5202884;28;20634;-65
2022/01/06 07:51:38;;;;;;;9.10;7.83;;;1.60;99.90;;;2.08;100.00;98013.09;5202301;28;20243;-64
2022/01/06 07:54:11;;;;;;;8.77;7.57;;;1.60;99.90;;;2.16;100.00;98021.38;5203861;28;20206;-66
2022/01/06 07:56:44;;;;;;;7.63;6.93;;;1.70;99.90;;;2.21;100.00;98028.63;5205590;28;20201;-63
2022/01/06 07:59:19;;;;;;;10.27;8.87;;;1.70;99.90;;;2.28;100.00;98025.00;5203149;28;20292;-65
2022/01/06 08:01:52;;;;;;;9.63;8.77;;;1.80;99.90;;;2.30;100.00;98031.09;5202792;28;20240;-64
2022/01/06 08:04:25;;;;;;;9.93;8.93;;;1.80;99.90;;;2.36;100.00;98031.63;5203732;28;20677;-64
2022/01/06 08:06:58;;;;;;;10.07;9.07;;;1.80;99.90;;;2.40;100.00;98042.88;5199971;28;20665;-65
2022/01/06 08:09:31;;;;;;;14.03;11.13;;;1.90;99.90;;;2.47;100.00;98035.16;5204316;28;20217;-64
2022/01/06 08:12:05;;;;;;;14.90;12.30;;;1.90;99.90;;;2.55;100.00;98039.25;5203009;28;20319;-66
2022/01/06 08:14:40;;;;;;;12.50;11.03;;;2.00;99.90;;;2.59;100.00;98038.75;5202153;28;20666;-65
2022/01/06 08:17:13;;;;;;;10.80;9.70;;;2.00;99.90;;;2.65;100.00;98048.53;5202416;28;20734;-65
2022/01/06 08:19:47;;;;;;;12.47;8.83;;;2.00;99.90;;;2.67;100.00;98054.59;5203127;28;20587;-64
2022/01/06 08:22:20;;;;;;;9.97;8.90;;;2.00;99.90;;;2.67;100.00;98049.56;5203239;28;20228;-66
2022/01/06 08:24:53;;;;;;;10.33;9.20;;;2.10;99.90;;;2.60;100.00;98047.22;5198935;28;20208;-66
2022/01/06 08:27:26;;;;;;;10.77;9.63;;;2.00;99.90;;;2.67;100.00;98050.44;5204195;28;20589;-66
2022/01/06 08:30:01;;;;;;;14.90;10.57;;;2.10;99.90;;;2.83;100.00;98062.81;5208489;28;20288;-65
2022/01/06 08:32:34;;;;;;;12.50;11.23;;;2.30;99.90;;;2.98;100.00;98057.38;5201534;28;20711;-66
2022/01/06 08:35:08;;;;;;;11.93;10.67;;;2.30;99.90;;;3.10;100.00;98059.31;5201425;28;20205;-66
2022/01/06 08:37:41;;;;;;;13.57;11.60;;;2.40;99.90;;;3.33;100.00;98061.34;5197732;28;20210;-65
2022/01/06 08:40:14;;;;;;;15.10;13.50;;;2.70;99.90;;;3.48;100.00;98068.50;5200875;28;20198;-66
2022/01/06 08:42:48;;;;;;;15.13;12.67;;;2.80;99.90;;;3.57;100.00;98070.19;5198394;28;20231;-66
2022/01/06 08:45:22;;;;;;;13.80;11.47;;;2.90;99.90;;;3.80;100.00;98059.53;5199358;28;20221;-66
2022/01/06 08:47:56;;;;;;;11.33;10.13;;;2.90;99.90;;;3.80;100.00;98059.53;5197617;28;20219;-66
2022/01/06 08:50:29;;;;;;;15.97;10.63;;;2.90;99.90;;;3.80;100.00;98062.06;5192293;28;20194;-67
2022/01/06 08:53:03;;;;;;;12.87;11.40;;;3.00;99.90;;;3.82;100.00;98064.72;5200167;28;20235;-66
2022/01/06 08:55:36;;;;;;;12.97;10.93;;;3.00;99.90;;;3.77;100.00;98068.50;5199758;28;20228;-66
2022/01/06 08:58:09;;;;;;;12.67;11.10;;;2.90;99.90;;;3.71;100.00;98073.03;5200343;28;20200;-66
2022/01/06 09:00:44;;;;;;;14.30;10.87;;;2.90;99.90;;;3.64;100.00;98084.25;5198746;28;20651;-66
2022/01/06 09:03:17;;;;;;;12.57;10.83;;;3.00;99.90;;;3.64;100.00;98083.38;5198429;28;20883;-66
2022/01/06 09:05:50;;;;;;;14.43;11.23;;;2.90;99.90;;;3.62;100.00;98085.75;5197861;28;20234;-67
2022/01/06 09:08:23;;;;;;;13.50;12.10;;;2.90;99.90;;;3.68;100.00;98080.34;5199875;28;20717;-67
2022/01/06 09:10:57;;;;;;;12.17;10.43;;;3.00;99.90;;;3.73;100.00;98087.56;5200774;28;20207;-66
2022/01/06 09:13:33;;;;;;;14.80;11.93;;;3.00;99.90;;;3.78;100.00;98075.34;5199814;28;20263;-66
2022/01/06 09:16:10;;;;;;;14.97;11.90;;;3.10;99.90;;;3.83;100.00;98082.56;5199578;28;20224;-65
2022/01/06 09:18:43;;;;;;;12.43;10.50;;;3.10;99.90;;;3.89;100.00;98078.78;5202373;28;20249;-68
2022/01/06 09:21:22;;;;;;;14.23;10.83;;;3.10;99.90;;;3.94;100.00;98078.41;5200335;28;20198;-64
2022/01/06 09:23:57;;;;;;;13.53;10.37;;;3.20;99.90;;;4.10;100.00;98078.09;5200290;28;20215;-67
2022/01/06 09:26:30;;;;;;;14.03;10.73;;;3.20;99.90;;;4.16;100.00;98090.38;5201095;28;20223;-66
2022/01/06 09:29:05;;;;;;;10.93;9.30;;;3.40;99.90;;;4.28;100.00;98093.94;5199823;28;20205;-66
2022/01/06 09:31:42;;;;;;;12.33;9.70;;;3.40;99.90;;;4.33;100.00;98089.28;5201118;28;20228;-66
2022/01/06 09:34:15;;;;;;;12.90;9.90;;;3.50;99.90;;;4.31;100.00;98100.91;5195224;28;20205;-66
2022/01/06 09:36:48;;;;;;;12.70;9.93;;;3.60;99.90;;;4.33;100.00;98102.81;5198357;28;20630;-66
2022/01/06 09:39:21;;;;;;;14.57;9.13;;;3.60;99.90;;;4.36;100.00;98095.50;5198753;28;20302;-66
2022/01/06 09:41:54;;;;;;;13.90;12.43;;;3.60;99.90;;;4.44;100.00;98103.75;5201125;28;20225;-66
2022/01/06 09:44:28;;;;;;;12.50;10.50;;;3.70;99.90;;;4.48;100.00;98106.63;5199505;28;20210;-66
2022/01/06 09:47:06;;;;;;;16.70;11.60;;;3.70;99.90;;;4.40;100.00;98107.63;5199354;28;20241;-66
2022/01/06 09:49:56;;;;;;;12.93;10.10;;;3.70;99.90;;;4.25;100.00;98112.28;5197618;28;20693;-67
2022/01/06 09:52:29;;;;;;;12.30;9.40;;;3.50;99.90;;;4.21;100.00;98111.91;5193472;28;20765;-65
2022/01/06 09:55:04;;;;;;;16.47;9.60;;;3.40;99.90;;;4.11;100.00;98111.88;5197354;28;20227;-65
2022/01/06 09:57:37;;;;;;;10.17;9.03;;;3.40;99.90;;;4.10;100.00;98113.50;5194818;28;20216;-65
2022/01/06 10:00:13;;;;;;;14.13;10.13;;;3.40;99.90;;;4.12;100.00;98116.16;5201274;28;20206;-66
2022/01/06 10:02:54;;;;;;;10.73;9.57;;;3.40;99.90;;;4.11;100.00;98116.91;5201515;28;20233;-67
2022/01/06 10:05:37;;;;;;;12.80;10.13;;;3.40;99.90;;;4.14;100.00;98119.72;5200868;28;20186;-65
2022/01/06 10:08:11;;;;;;;12.57;10.03;;;3.40;99.90;;;4.06;100.00;98124.09;5201012;28;20256;-66
2022/01/06 10:10:44;;;;;;;16.60;12.13;;;3.40;99.90;;;3.95;100.00;98128.25;5203531;28;20509;-66
2022/01/06 10:13:19;;;;;;;13.63;10.50;;;3.30;99.90;;;3.99;100.00;98122.69;5204225;28;20222;-68
2022/01/06 10:15:52;;;;;;;14.83;10.77;;;3.30;99.90;;;4.00;100.00;98134.56;5199070;28;20205;-66
2022/01/06 10:18:26;;;;;;;14.70;9.17;;;3.30;99.90;;;4.00;100.00;98119.41;5202606;28;20195;-67
2022/01/06 10:20:59;;;;;;;13.43;10.07;;;3.30;99.90;;;3.92;100.00;98125.47;5203897;28;20207;-65
2022/01/06 10:23:32;;;;;;;14.30;9.37;;;3.30;99.90;;;3.99;100.00;98130.28;5202751;28;20209;-65
2022/01/06 10:26:13;;;;;;;11.93;10.23;;;3.30;99.90;;;4.03;100.00;98131.44;5203027;28;20222;-65
2022/01/06 10:28:51;;;;;;;15.43;9.60;;;3.40;99.90;;;4.12;100.00;98122.13;5203806;28;20639;-65
2022/01/06 10:31:26;;;;;;;12.63;9.53;;;3.40;99.90;;;4.10;100.00;98116.03;5205791;28;20221;-65
2022/01/06 10:34:08;;;;;;;13.47;10.23;;;3.30;99.90;;;4.06;100.00;98119.97;5202403;28;20292;-65
2022/01/06 10:36:42;;;;;;;12.17;9.37;;;3.30;99.90;;;4.06;100.00;98121.56;5206268;28;20212;-65
2022/01/06 10:39:15;;;;;;;16.33;9.77;;;3.30;99.90;;;4.03;100.00;98122.22;5200600;28;20203;-65
2022/01/06 10:41:48;;;;;;;16.00;10.27;;;3.20;99.90;;;4.04;100.00;98125.63;5197848;28;20220;-65
2022/01/06 10:44:21;;;;;;;12.97;9.83;;;3.30;99.90;;;3.99;100.00;98126.88;5197724;28;20205;-65
2022/01/06 10:46:59;;;;;;;16.37;10.73;;;3.20;99.90;;;4.01;100.00;98125.38;5201185;28;20228;-65
2022/01/06 10:49:33;;;;;;;11.50;9.43;;;3.20;99.90;;;4.03;100.00;98124.75;5203924;28;20198;-65
2022/01/06 10:52:07;;;;;;;12.97;9.67;;;3.20;99.90;;;4.03;100.00;98119.69;5202024;28;20239;-65
2022/01/06 10:54:40;;;;;;;13.67;9.73;;;3.20;99.90;;;4.16;100.00;98123.28;5202468;28;20211;-65
2022/01/06 10:57:13;;;;;;;13.67;9.20;;;3.30;99.90;;;4.33;100.00;98130.66;5197821;28;20205;-65